Meteorología y climatología de Navarra
Datos de la estación - Meteo Navarra

Estación de Bera (Larrategaña) GN

Altitud 306 m.


Datos desde el 10/10/2019 hasta el 11/10/2019 en horario solar
Los datos son PROVISIONALES

Anterior Página 1 de 1 Siguiente Descargar: Formato para Excel 2000 o superior   Formato csv   Formato para OpenOffice Calc
Fecha Temperatura Humedad relativa Radiación global Insolación Precipitación Vel. viento 10 m Vel. viento 10 m Dir. viento 10 m
ºC % W/m² s l/m² m/s km/h º
10/10/2019 0:00 12.0 99 0.0 0 0.0 2.3 8.2 236
10/10/2019 0:10 12.0 100 0.0 0 0.0 2.2 8.0 234
10/10/2019 0:20 12.0 100 0.0 0 0.0 1.8 6.6 230
10/10/2019 0:30 11.9 100 0.0 0 0.0 1.8 6.6 235
10/10/2019 0:40 11.8 100 0.0 0 0.0 1.7 6.2 232
10/10/2019 0:50 11.8 100 0.0 0 0.0 1.7 6.0 233
10/10/2019 1:00 11.7 100 0.0 0 0.0 1.5 5.4 232
10/10/2019 1:10 11.7 100 0.0 0 0.0 1.3 4.6 232
10/10/2019 1:20 11.7 100 0.0 0 0.0 1.3 4.8 238
10/10/2019 1:30 11.7 100 0.0 0 0.0 1.4 5.1 234
10/10/2019 1:40 11.4 100 0.0 0 0.0 2.0 7.1 231
10/10/2019 1:50 11.4 100 0.0 0 0.0 2.4 8.6 234
10/10/2019 2:00 11.4 100 0.0 0 0.0 2.3 8.4 231
10/10/2019 2:10 11.3 100 0.0 0 0.0 2.5 9.1 227
10/10/2019 2:20 11.2 100 0.0 0 0.0 2.4 8.6 232
10/10/2019 2:30 11.1 100 0.0 0 0.0 1.8 6.5 235
10/10/2019 2:40 11.0 100 0.0 0 0.0 1.9 7.0 226
10/10/2019 2:50 10.9 100 0.0 0 0.0 2.4 8.6 226
10/10/2019 3:00 10.9 100 0.0 0 0.0 2.2 8.0 229
10/10/2019 3:10 10.9 100 0.0 0 0.0 2.3 8.2 231
10/10/2019 3:20 10.9 100 0.0 0 0.0 2.6 9.3 228
10/10/2019 3:30 10.8 100 0.0 0 0.0 2.4 8.6 230
10/10/2019 3:40 10.9 100 0.0 0 0.0 2.4 8.6 227
10/10/2019 3:50 10.8 100 0.0 0 0.0 2.4 8.8 231
10/10/2019 4:00 10.7 100 0.0 0 0.0 2.4 8.5 229
10/10/2019 4:10 10.7 100 0.0 0 0.0 2.1 7.6 228
10/10/2019 4:20 10.6 100 0.0 0 0.0 2.0 7.2 232
10/10/2019 4:30 10.6 100 0.0 0 0.0 2.2 8.1 230
10/10/2019 4:40 10.5 100 0.0 0 0.0 2.5 8.8 225
10/10/2019 4:50 10.4 100 0.0 0 0.0 2.7 9.6 227
10/10/2019 5:00 10.4 100 0.0 0 0.0 2.7 9.8 227
10/10/2019 5:10 10.3 100 0.0 0 0.0 2.9 10.3 233
10/10/2019 5:20 10.3 100 0.0 0 0.0 2.7 9.8 233
10/10/2019 5:30 10.2 100 0.0 0 0.0 2.3 8.2 233
10/10/2019 5:40 10.2 100 0.0 0 0.0 2.3 8.3 228
10/10/2019 5:50 10.1 100 0.0 0 0.0 2.4 8.7 231
10/10/2019 6:00 10.1 100 0.0 0 0.0 2.4 8.7 230
10/10/2019 6:10 10.0 100 0.0 0 0.0 1.9 6.9 247
10/10/2019 6:20 10.0 100 0.0 0 0.1 3.2 11.4 220
10/10/2019 6:30 9.9 100 0.0 0 0.0 2.7 9.6 218
10/10/2019 6:40 9.9 100 12.0 0 0.0 2.3 8.1 219
10/10/2019 6:50 10.0 100 23.3 0 0.0 2.1 7.6 231
10/10/2019 7:00 10.0 100 58.2 454 0.0 1.7 6.2 243
10/10/2019 7:10 10.0 100 80.2 468 0.0 1.9 7.0 220
10/10/2019 7:20 10.2 100 83.9 422 0.0 1.9 6.9 221
10/10/2019 7:30 10.2 100 54.1 0 0.0 2.2 7.8 226
10/10/2019 7:40 10.2 100 78.1 0 0.0 2.4 8.6 236
10/10/2019 7:50 10.2 100 148.8 248 0.0 2.6 9.4 227
10/10/2019 8:00 10.5 100 222.7 530 0.0 2.3 8.1 232
10/10/2019 8:10 10.6 100 145.4 152 0.0 2.0 7.1 233
10/10/2019 8:20 10.7 100 123.0 0 0.0 1.9 6.7 235
10/10/2019 8:30 10.8 100 142.6 0 0.0 1.7 6.0 227
10/10/2019 8:40 10.9 100 197.5 232 0.0 1.5 5.5 230
10/10/2019 8:50 11.0 100 256.4 600 0.0 1.2 4.2 225
10/10/2019 9:00 11.2 100 411.6 600 0.0 1.0 3.7 223
10/10/2019 9:10 11.9 100 538.3 600 0.0 0.8 2.9 222
10/10/2019 9:20 12.4 100 537.1 600 0.0 0.5 1.6 213
10/10/2019 9:30 12.4 99 582.0 600 0.0 0.9 3.2 225
10/10/2019 9:40 13.4 93 519.4 600 0.0 0.3 1.0 207
10/10/2019 9:50 14.8 85 592.2 600 0.0 0.6 2.2 208
10/10/2019 10:00 15.6 82 577.5 600 0.0 0.6 2.0 209
10/10/2019 10:10 16.5 78 587.2 600 0.0 0.8 2.7 160
10/10/2019 10:20 16.4 78 610.5 600 0.0 0.9 3.1 192
10/10/2019 10:30 16.7 79 638.6 600 0.0 1.1 3.8 58
10/10/2019 10:40 16.7 72 654.1 600 0.0 0.8 3.0 48
10/10/2019 10:50 17.4 69 665.5 600 0.0 0.5 1.9 212
10/10/2019 11:00 17.8 69 430.8 336 0.0 0.9 3.4 163
10/10/2019 11:10 17.2 69 413.4 332 0.0 0.9 3.1 99
10/10/2019 11:20 16.8 71 412.5 282 0.0 0.7 2.3 104
10/10/2019 11:30 17.7 68 513.1 396 0.0 0.7 2.5 356
10/10/2019 11:40 17.7 68 475.6 320 0.0 1.2 4.5 59
10/10/2019 11:50 17.2 70 394.6 242 0.0 1.2 4.1 40
10/10/2019 12:00 17.2 69 390.2 254 0.0 1.5 5.4 53
10/10/2019 12:10 17.6 65 599.3 478 0.0 1.4 5.1 53
10/10/2019 12:20 18.0 61 734.2 600 0.0 2.5 9.0 38
10/10/2019 12:30 18.0 64 751.3 600 0.0 2.6 9.2 35
10/10/2019 12:40 18.2 64 719.9 600 0.0 2.6 9.4 50
10/10/2019 12:50 18.0 64 731.7 600 0.0 2.3 8.3 44
10/10/2019 13:00 18.3 64 753.5 600 0.0 2.2 7.9 45
10/10/2019 13:10 18.4 64 744.0 600 0.0 3.2 11.6 49
10/10/2019 13:20 18.6 64 699.3 600 0.0 2.5 9.1 45
10/10/2019 13:30 18.4 64 619.3 582 0.0 2.8 10.2 45
10/10/2019 13:40 18.2 65 666.6 600 0.0 3.0 10.7 49
10/10/2019 13:50 18.3 65 512.4 438 0.0 3.1 11.2 60
10/10/2019 14:00 18.0 66 426.0 402 0.0 3.1 11.1 52
10/10/2019 14:10 17.5 69 184.0 46 0.0 2.5 9.0 45
10/10/2019 14:20 17.3 69 197.2 52 0.0 2.7 9.8 27
10/10/2019 14:30 17.2 72 227.6 132 0.0 1.8 6.6 358
10/10/2019 14:40 17.4 72 264.6 290 0.0 1.9 6.7 14
10/10/2019 14:50 17.6 72 506.0 600 0.0 2.5 9.0 334
10/10/2019 15:00 18.0 70 433.5 600 0.0 2.0 7.3 335
10/10/2019 15:10 17.8 70 388.8 600 0.0 2.7 9.8 327
10/10/2019 15:20 17.7 71 372.7 600 0.0 2.0 7.1 353
10/10/2019 15:30 17.5 72 329.0 600 0.0 2.3 8.4 28
10/10/2019 15:40 17.2 71 301.8 600 0.0 3.2 11.4 49
10/10/2019 15:50 17.3 71 272.9 600 0.0 3.9 14.2 52
10/10/2019 16:00 17.1 72 242.0 600 0.0 3.0 10.7 52
10/10/2019 16:10 17.0 73 212.3 600 0.0 2.5 9.1 52
10/10/2019 16:20 16.9 73 180.3 600 0.0 3.2 11.4 59
10/10/2019 16:30 16.7 74 148.4 600 0.0 2.9 10.3 57
10/10/2019 16:40 16.5 75 119.3 600 0.0 2.7 9.8 55
10/10/2019 16:50 16.4 75 91.3 600 0.0 3.1 11.2 54
10/10/2019 17:00 16.3 76 63.7 600 0.0 2.5 9.1 58
10/10/2019 17:10 16.1 77 39.1 544 0.0 2.2 7.8 51
10/10/2019 17:20 15.8 79 5.5 0 0.0 0.9 3.1 64
10/10/2019 17:30 15.4 81 0.0 0 0.0 1.0 3.7 39
10/10/2019 17:40 15.4 81 0.0 0 0.0 1.2 4.5 39
10/10/2019 17:50 15.1 81 0.0 0 0.0 2.2 7.8 59
10/10/2019 18:00 15.0 81 0.0 0 0.0 0.6 2.2 105
10/10/2019 18:10 14.9 83 0.0 0 0.0 0.6 2.3 222
10/10/2019 18:20 14.7 87 0.0 0 0.0 0.7 2.5 225
10/10/2019 18:30 14.4 88 0.0 0 0.0 1.4 4.9 233
10/10/2019 18:40 14.0 91 0.0 0 0.0 1.8 6.6 226
10/10/2019 18:50 13.7 94 0.0 0 0.0 1.7 6.3 233
10/10/2019 19:00 13.6 94 0.0 0 0.0 1.8 6.6 244
10/10/2019 19:10 13.9 92 0.0 0 0.0 1.6 5.8 243
10/10/2019 19:20 13.7 93 0.0 0 0.0 1.6 5.7 244
10/10/2019 19:30 13.6 93 0.0 0 0.0 1.1 4.1 237
10/10/2019 19:40 13.6 93 0.0 0 0.0 1.4 5.2 236
10/10/2019 19:50 13.1 95 0.0 0 0.0 2.0 7.1 236
10/10/2019 20:00 13.0 96 0.0 0 0.0 1.8 6.4 243
10/10/2019 20:10 13.0 96 0.0 0 0.0 2.0 7.1 243
10/10/2019 20:20 13.0 95 0.0 0 0.0 2.0 7.3 237
10/10/2019 20:30 12.4 97 0.0 0 0.0 1.9 6.7 231
10/10/2019 20:40 12.1 99 0.0 0 0.0 2.1 7.5 238
10/10/2019 20:50 12.3 99 0.0 0 0.0 2.3 8.4 235
10/10/2019 21:00 12.0 99 0.0 0 0.0 2.5 8.9 232
10/10/2019 21:10 11.8 99 0.0 0 0.0 2.1 7.5 236
10/10/2019 21:20 11.8 100 0.0 0 0.0 1.3 4.6 244
10/10/2019 21:30 11.8 100 0.0 0 0.0 1.8 6.4 230
10/10/2019 21:40 11.8 100 0.0 0 0.0 2.5 9.0 232
10/10/2019 21:50 11.6 100 0.0 0 0.0 2.3 8.2 235
10/10/2019 22:00 11.7 100 0.0 0 0.0 1.9 7.0 231
10/10/2019 22:10 11.7 100 0.0 0 0.0 1.9 6.8 238
10/10/2019 22:20 11.7 99 0.0 0 0.0 1.4 5.1 247
10/10/2019 22:30 11.7 99 0.0 0 0.0 1.6 5.7 236
10/10/2019 22:40 11.6 99 0.0 0 0.0 1.9 6.9 239
10/10/2019 22:50 11.6 99 0.0 0 0.0 1.1 4.1 244
10/10/2019 23:00 11.7 98 0.0 0 0.0 1.6 5.7 236
10/10/2019 23:10 11.7 97 0.0 0 0.0 1.6 5.9 236
10/10/2019 23:20 11.4 98 0.0 0 0.0 1.7 6.2 230
10/10/2019 23:30 11.2 99 0.0 0 0.0 1.5 5.5 243
10/10/2019 23:40 11.1 99 0.0 0 0.0 1.6 5.8 232
10/10/2019 23:50 11.1 99 0.0 0 0.0 1.9 6.7 237
Anterior Página 1 de 1 Siguiente

NOTA: Tipo de datos según el color:
   - Valores diarios o 10 minutos correctos
   - Valores diarios calculados a partir de un número de datos 10 minutos menor que 144 y mayor que 120, o de un número de datos semihorarios menor que 48 y mayor que 40 (caso de las estaciones de Riegos de Navarra y del MARM)
   - Valores diez minutos estimados


Contacto        Enlaces        Aviso legal